sensor_id;sensor_type;location;lat;lon;timestamp;pressure;altitude;pressure_sealevel;temperature;humidity
34931;BME280;21134;49.646;8.560;2023-03-04T00:00:46;101227.88;;;0.05;85.34
34931;BME280;21134;49.646;8.560;2023-03-04T00:03:12;101235.50;;;0.07;86.15
34931;BME280;21134;49.646;8.560;2023-03-04T00:05:39;101229.44;;;0.03;85.88
34931;BME280;21134;49.646;8.560;2023-03-04T00:08:06;101231.81;;;0.00;86.56
34931;BME280;21134;49.646;8.560;2023-03-04T00:10:34;101236.53;;;0.10;86.08
34931;BME280;21134;49.646;8.560;2023-03-04T00:13:00;101236.13;;;0.03;85.92
34931;BME280;21134;49.646;8.560;2023-03-04T00:15:27;101240.22;;;0.01;85.86
34931;BME280;21134;49.646;8.560;2023-03-04T00:17:53;101240.13;;;-0.01;87.16
34931;BME280;21134;49.646;8.560;2023-03-04T00:20:19;101243.81;;;0.06;87.02
34931;BME280;21134;49.646;8.560;2023-03-04T00:22:46;101245.94;;;-0.02;86.90
34931;BME280;21134;49.646;8.560;2023-03-04T00:25:12;101238.94;;;-0.08;86.86
34931;BME280;21134;49.646;8.560;2023-03-04T00:27:40;101240.19;;;-0.16;87.45
34931;BME280;21134;49.646;8.560;2023-03-04T00:30:08;101238.59;;;-0.14;87.58
34931;BME280;21134;49.646;8.560;2023-03-04T00:32:35;101236.59;;;-0.19;87.14
34931;BME280;21134;49.646;8.560;2023-03-04T00:35:01;101244.69;;;-0.25;87.16
34931;BME280;21134;49.646;8.560;2023-03-04T00:37:28;101241.22;;;-0.27;87.97
34931;BME280;21134;49.646;8.560;2023-03-04T00:39:54;101239.34;;;-0.31;87.72
34931;BME280;21134;49.646;8.560;2023-03-04T00:42:21;101239.41;;;-0.30;87.63
34931;BME280;21134;49.646;8.560;2023-03-04T00:44:48;101238.38;;;-0.33;88.73
34931;BME280;21134;49.646;8.560;2023-03-04T00:47:15;101246.78;;;-0.33;88.05
34931;BME280;21134;49.646;8.560;2023-03-04T00:49:42;101244.97;;;-0.35;88.37
34931;BME280;21134;49.646;8.560;2023-03-04T00:52:08;101248.78;;;-0.42;88.43
34931;BME280;21134;49.646;8.560;2023-03-04T00:54:35;101254.53;;;-0.44;88.52
34931;BME280;21134;49.646;8.560;2023-03-04T00:57:01;101252.53;;;-0.50;87.93
34931;BME280;21134;49.646;8.560;2023-03-04T00:59:28;101254.44;;;-0.46;89.19
34931;BME280;21134;49.646;8.560;2023-03-04T01:01:55;101246.38;;;-0.55;88.60
34931;BME280;21134;49.646;8.560;2023-03-04T01:04:22;101246.31;;;-0.57;88.36
34931;BME280;21134;49.646;8.560;2023-03-04T01:06:49;101244.72;;;-0.55;87.99
34931;BME280;21134;49.646;8.560;2023-03-04T01:09:15;101231.22;;;-0.57;89.03
34931;BME280;21134;49.646;8.560;2023-03-04T01:11:42;101239.69;;;-0.55;88.47
34931;BME280;21134;49.646;8.560;2023-03-04T01:14:08;101239.19;;;-0.64;87.84
34931;BME280;21134;49.646;8.560;2023-03-04T01:16:35;101241.78;;;-0.62;87.69
34931;BME280;21134;49.646;8.560;2023-03-04T01:19:03;101233.91;;;-0.68;88.04
34931;BME280;21134;49.646;8.560;2023-03-04T01:21:29;101239.72;;;-0.69;88.53
34931;BME280;21134;49.646;8.560;2023-03-04T01:23:56;101240.59;;;-0.69;88.07
34931;BME280;21134;49.646;8.560;2023-03-04T01:26:22;101237.78;;;-0.74;88.18
34931;BME280;21134;49.646;8.560;2023-03-04T01:28:49;101235.28;;;-0.74;89.41
34931;BME280;21134;49.646;8.560;2023-03-04T01:31:15;101235.72;;;-0.81;89.58
34931;BME280;21134;49.646;8.560;2023-03-04T01:33:42;101232.16;;;-0.84;89.53
34931;BME280;21134;49.646;8.560;2023-03-04T01:36:10;101232.78;;;-0.88;90.33
34931;BME280;21134;49.646;8.560;2023-03-04T01:38:36;101235.03;;;-0.93;90.31
34931;BME280;21134;49.646;8.560;2023-03-04T01:41:03;101226.28;;;-1.00;90.04
34931;BME280;21134;49.646;8.560;2023-03-04T01:43:30;101223.06;;;-0.97;90.30
34931;BME280;21134;49.646;8.560;2023-03-04T01:45:57;101222.09;;;-0.99;90.30
34931;BME280;21134;49.646;8.560;2023-03-04T01:48:26;101214.00;;;-0.95;88.96
34931;BME280;21134;49.646;8.560;2023-03-04T01:50:54;101219.88;;;-0.95;89.47
34931;BME280;21134;49.646;8.560;2023-03-04T01:53:23;101208.63;;;-1.01;89.97
34931;BME280;21134;49.646;8.560;2023-03-04T01:55:52;101208.16;;;-1.09;90.03
34931;BME280;21134;49.646;8.560;2023-03-04T01:58:19;101210.09;;;-1.05;90.40
34931;BME280;21134;49.646;8.560;2023-03-04T02:00:46;101207.94;;;-0.99;89.63
34931;BME280;21134;49.646;8.560;2023-03-04T02:03:14;101202.00;;;-0.99;89.67
34931;BME280;21134;49.646;8.560;2023-03-04T02:05:43;101208.50;;;-1.03;90.13
34931;BME280;21134;49.646;8.560;2023-03-04T02:08:11;101208.00;;;-0.97;90.43
34931;BME280;21134;49.646;8.560;2023-03-04T02:10:41;101196.06;;;-1.01;89.76
34931;BME280;21134;49.646;8.560;2023-03-04T02:13:09;101197.88;;;-0.84;90.27
34931;BME280;21134;49.646;8.560;2023-03-04T02:15:36;101194.22;;;-0.59;90.62
34931;BME280;21134;49.646;8.560;2023-03-04T02:18:06;101188.56;;;-0.55;90.80
34931;BME280;21134;49.646;8.560;2023-03-04T02:20:44;101185.28;;;-0.54;90.41
34931;BME280;21134;49.646;8.560;2023-03-04T02:23:15;101182.88;;;-0.67;90.40
34931;BME280;21134;49.646;8.560;2023-03-04T02:25:49;101180.00;;;-0.74;91.09
34931;BME280;21134;49.646;8.560;2023-03-04T02:28:18;101181.41;;;-0.79;91.12
34931;BME280;21134;49.646;8.560;2023-03-04T02:30:45;101184.00;;;-0.77;90.24
34931;BME280;21134;49.646;8.560;2023-03-04T02:33:16;101178.38;;;-0.73;90.90
34931;BME280;21134;49.646;8.560;2023-03-04T02:35:44;101174.75;;;-0.78;90.33
34931;BME280;21134;49.646;8.560;2023-03-04T02:38:11;101179.25;;;-0.87;91.41
34931;BME280;21134;49.646;8.560;2023-03-04T02:40:39;101177.78;;;-0.99;92.51
34931;BME280;21134;49.646;8.560;2023-03-04T02:43:08;101173.47;;;-1.01;92.80
34931;BME280;21134;49.646;8.560;2023-03-04T02:45:40;101168.44;;;-1.01;92.02
34931;BME280;21134;49.646;8.560;2023-03-04T02:48:07;101169.47;;;-0.98;92.21
34931;BME280;21134;49.646;8.560;2023-03-04T02:50:36;101167.56;;;-1.02;91.44
34931;BME280;21134;49.646;8.560;2023-03-04T02:53:04;101170.66;;;-1.06;92.05
34931;BME280;21134;49.646;8.560;2023-03-04T02:55:30;101177.00;;;-1.12;92.33
34931;BME280;21134;49.646;8.560;2023-03-04T02:57:57;101176.81;;;-1.15;93.05
34931;BME280;21134;49.646;8.560;2023-03-04T03:00:24;101175.28;;;-1.13;91.89
34931;BME280;21134;49.646;8.560;2023-03-04T03:02:52;101175.88;;;-1.18;92.39
34931;BME280;21134;49.646;8.560;2023-03-04T03:05:19;101174.31;;;-1.15;92.39
34931;BME280;21134;49.646;8.560;2023-03-04T03:07:45;101179.59;;;-1.11;90.92
34931;BME280;21134;49.646;8.560;2023-03-04T03:10:12;101180.56;;;-1.24;91.56
34931;BME280;21134;49.646;8.560;2023-03-04T03:12:38;101175.19;;;-1.30;90.81
34931;BME280;21134;49.646;8.560;2023-03-04T03:15:06;101180.97;;;-1.31;91.03
34931;BME280;21134;49.646;8.560;2023-03-04T03:17:33;101175.44;;;-1.25;90.72
34931;BME280;21134;49.646;8.560;2023-03-04T03:20:00;101171.53;;;-1.20;91.62
34931;BME280;21134;49.646;8.560;2023-03-04T03:22:27;101169.91;;;-1.20;92.17
34931;BME280;21134;49.646;8.560;2023-03-04T03:24:53;101168.75;;;-1.25;91.38
34931;BME280;21134;49.646;8.560;2023-03-04T03:27:20;101171.09;;;-1.28;92.32
34931;BME280;21134;49.646;8.560;2023-03-04T03:29:46;101169.66;;;-1.24;92.69
34931;BME280;21134;49.646;8.560;2023-03-04T03:32:13;101170.75;;;-1.19;91.78
34931;BME280;21134;49.646;8.560;2023-03-04T03:34:39;101168.59;;;-1.13;92.02
34931;BME280;21134;49.646;8.560;2023-03-04T03:37:07;101164.19;;;-1.17;91.86
34931;BME280;21134;49.646;8.560;2023-03-04T03:39:34;101166.59;;;-1.19;91.74
34931;BME280;21134;49.646;8.560;2023-03-04T03:42:00;101169.09;;;-1.19;91.68
34931;BME280;21134;49.646;8.560;2023-03-04T03:44:27;101161.69;;;-1.17;92.08
34931;BME280;21134;49.646;8.560;2023-03-04T03:46:53;101163.34;;;-1.18;91.86
34931;BME280;21134;49.646;8.560;2023-03-04T03:49:20;101167.03;;;-1.26;93.03
34931;BME280;21134;49.646;8.560;2023-03-04T03:51:46;101163.56;;;-1.28;92.61
34931;BME280;21134;49.646;8.560;2023-03-04T03:54:14;101162.63;;;-1.30;92.22
34931;BME280;21134;49.646;8.560;2023-03-04T03:56:41;101164.16;;;-1.32;93.11
34931;BME280;21134;49.646;8.560;2023-03-04T03:59:07;101170.06;;;-1.31;92.07
34931;BME280;21134;49.646;8.560;2023-03-04T04:01:33;101169.44;;;-1.42;93.34
34931;BME280;21134;49.646;8.560;2023-03-04T04:04:00;101170.97;;;-1.44;92.36
34931;BME280;21134;49.646;8.560;2023-03-04T04:06:26;101170.81;;;-1.47;93.05
34931;BME280;21134;49.646;8.560;2023-03-04T04:08:53;101173.06;;;-1.52;92.25
34931;BME280;21134;49.646;8.560;2023-03-04T04:11:21;101167.59;;;-1.59;92.01
34931;BME280;21134;49.646;8.560;2023-03-04T04:13:48;101160.16;;;-1.58;92.50
34931;BME280;21134;49.646;8.560;2023-03-04T04:16:14;101156.69;;;-1.60;91.96
34931;BME280;21134;49.646;8.560;2023-03-04T04:18:41;101160.66;;;-1.64;91.78
34931;BME280;21134;49.646;8.560;2023-03-04T04:21:08;101159.44;;;-1.70;91.91
34931;BME280;21134;49.646;8.560;2023-03-04T04:23:35;101163.50;;;-1.72;92.50
34931;BME280;21134;49.646;8.560;2023-03-04T04:26:01;101165.31;;;-1.70;92.15
34931;BME280;21134;49.646;8.560;2023-03-04T04:28:29;101160.09;;;-1.73;90.89
34931;BME280;21134;49.646;8.560;2023-03-04T04:30:56;101161.16;;;-1.69;91.18
34931;BME280;21134;49.646;8.560;2023-03-04T04:33:22;101160.16;;;-1.58;90.54
34931;BME280;21134;49.646;8.560;2023-03-04T04:35:49;101168.72;;;-1.54;90.78
34931;BME280;21134;49.646;8.560;2023-03-04T04:38:15;101168.53;;;-1.57;91.07
34931;BME280;21134;49.646;8.560;2023-03-04T04:40:42;101170.91;;;-1.46;90.19
34931;BME280;21134;49.646;8.560;2023-03-04T04:43:08;101167.38;;;-1.49;90.97
34931;BME280;21134;49.646;8.560;2023-03-04T04:45:36;101168.84;;;-1.38;90.78
34931;BME280;21134;49.646;8.560;2023-03-04T04:48:03;101172.91;;;-1.40;89.98
34931;BME280;21134;49.646;8.560;2023-03-04T04:50:29;101161.97;;;-1.41;90.49
34931;BME280;21134;49.646;8.560;2023-03-04T04:52:56;101165.31;;;-1.27;90.54
34931;BME280;21134;49.646;8.560;2023-03-04T04:55:22;101165.31;;;-1.27;90.65
34931;BME280;21134;49.646;8.560;2023-03-04T04:57:48;101173.88;;;-1.23;90.32
34931;BME280;21134;49.646;8.560;2023-03-04T05:00:16;101166.00;;;-1.14;89.99
34931;BME280;21134;49.646;8.560;2023-03-04T05:02:44;101167.22;;;-1.23;89.82
34931;BME280;21134;49.646;8.560;2023-03-04T05:05:11;101170.25;;;-1.13;90.61
34931;BME280;21134;49.646;8.560;2023-03-04T05:07:37;101167.22;;;-1.08;90.19
34931;BME280;21134;49.646;8.560;2023-03-04T05:10:04;101167.66;;;-1.00;90.15
34931;BME280;21134;49.646;8.560;2023-03-04T05:12:31;101167.47;;;-0.88;90.02
34931;BME280;21134;49.646;8.560;2023-03-04T05:14:57;101166.16;;;-0.97;90.27
34931;BME280;21134;49.646;8.560;2023-03-04T05:17:24;101168.84;;;-0.94;90.88
34931;BME280;21134;49.646;8.560;2023-03-04T05:19:52;101158.06;;;-0.92;91.17
34931;BME280;21134;49.646;8.560;2023-03-04T05:22:18;101168.41;;;-0.86;90.93
34931;BME280;21134;49.646;8.560;2023-03-04T05:24:45;101168.16;;;-0.91;91.62
34931;BME280;21134;49.646;8.560;2023-03-04T05:27:11;101165.31;;;-0.82;91.23
34931;BME280;21134;49.646;8.560;2023-03-04T05:29:38;101165.66;;;-0.76;91.17
34931;BME280;21134;49.646;8.560;2023-03-04T05:32:04;101160.00;;;-0.72;90.78
34931;BME280;21134;49.646;8.560;2023-03-04T05:34:30;101168.34;;;-0.73;91.31
34931;BME280;21134;49.646;8.560;2023-03-04T05:36:58;101160.00;;;-0.72;91.44
34931;BME280;21134;49.646;8.560;2023-03-04T05:39:25;101157.66;;;-0.69;91.23
34931;BME280;21134;49.646;8.560;2023-03-04T05:41:51;101166.41;;;-0.62;91.92
34931;BME280;21134;49.646;8.560;2023-03-04T05:44:18;101159.03;;;-0.59;91.60
34931;BME280;21134;49.646;8.560;2023-03-04T05:46:44;101154.00;;;-0.59;91.24
34931;BME280;21134;49.646;8.560;2023-03-04T05:49:11;101157.09;;;-0.49;91.36
34931;BME280;21134;49.646;8.560;2023-03-04T05:51:37;101159.94;;;-0.42;91.38
34931;BME280;21134;49.646;8.560;2023-03-04T05:54:05;101163.59;;;-0.37;91.12
34931;BME280;21134;49.646;8.560;2023-03-04T05:56:31;101158.28;;;-0.42;91.45
34931;BME280;21134;49.646;8.560;2023-03-04T05:58:58;101161.69;;;-0.41;92.77
34931;BME280;21134;49.646;8.560;2023-03-04T06:01:25;101156.81;;;-0.38;92.33
34931;BME280;21134;49.646;8.560;2023-03-04T06:03:51;101162.88;;;-0.35;92.20
34931;BME280;21134;49.646;8.560;2023-03-04T06:06:18;101174.81;;;-0.31;92.26
34931;BME280;21134;49.646;8.560;2023-03-04T06:08:44;101173.88;;;-0.33;92.45
34931;BME280;21134;49.646;8.560;2023-03-04T06:11:12;101178.03;;;-0.33;92.92
34931;BME280;21134;49.646;8.560;2023-03-04T06:13:38;101174.03;;;-0.30;93.53
34931;BME280;21134;49.646;8.560;2023-03-04T06:16:05;101178.53;;;-0.24;92.72
34931;BME280;21134;49.646;8.560;2023-03-04T06:18:32;101182.88;;;-0.21;93.36
34931;BME280;21134;49.646;8.560;2023-03-04T06:21:00;101184.75;;;-0.17;92.62
34931;BME280;21134;49.646;8.560;2023-03-04T06:23:28;101178.22;;;-0.14;92.57
34931;BME280;21134;49.646;8.560;2023-03-04T06:25:57;101195.03;;;-0.13;93.18
34931;BME280;21134;49.646;8.560;2023-03-04T06:28:25;101198.28;;;-0.15;92.97
34931;BME280;21134;49.646;8.560;2023-03-04T06:30:52;101187.50;;;-0.13;93.68
34931;BME280;21134;49.646;8.560;2023-03-04T06:33:19;101193.59;;;-0.09;93.12
34931;BME280;21134;49.646;8.560;2023-03-04T06:35:45;101192.84;;;-0.07;93.59
34931;BME280;21134;49.646;8.560;2023-03-04T06:38:12;101189.91;;;0.01;93.49
34931;BME280;21134;49.646;8.560;2023-03-04T06:40:39;101194.22;;;0.03;93.70
34931;BME280;21134;49.646;8.560;2023-03-04T06:43:05;101198.81;;;0.10;93.48
34931;BME280;21134;49.646;8.560;2023-03-04T06:45:33;101196.19;;;0.09;93.33
34931;BME280;21134;49.646;8.560;2023-03-04T06:47:59;101204.59;;;0.09;94.32
34931;BME280;21134;49.646;8.560;2023-03-04T06:50:26;101205.50;;;0.10;94.30
34931;BME280;21134;49.646;8.560;2023-03-04T06:52:55;101202.19;;;0.11;93.97
34931;BME280;21134;49.646;8.560;2023-03-04T06:55:21;101203.25;;;0.16;94.57
34931;BME280;21134;49.646;8.560;2023-03-04T06:57:48;101209.34;;;0.19;94.21
34931;BME280;21134;49.646;8.560;2023-03-04T07:00:16;101216.16;;;0.22;94.32
34931;BME280;21134;49.646;8.560;2023-03-04T07:02:44;101210.84;;;0.32;94.04
34931;BME280;21134;49.646;8.560;2023-03-04T07:05:11;101217.44;;;0.30;94.41
34931;BME280;21134;49.646;8.560;2023-03-04T07:07:37;101215.31;;;0.38;94.07
34931;BME280;21134;49.646;8.560;2023-03-04T07:10:04;101218.09;;;0.42;94.03
34931;BME280;21134;49.646;8.560;2023-03-04T07:12:31;101214.22;;;0.49;93.33
34931;BME280;21134;49.646;8.560;2023-03-04T07:14:58;101229.72;;;0.57;92.94
34931;BME280;21134;49.646;8.560;2023-03-04T07:17:24;101227.91;;;0.54;92.39
34931;BME280;21134;49.646;8.560;2023-03-04T07:19:52;101220.75;;;0.45;93.02
34931;BME280;21134;49.646;8.560;2023-03-04T07:22:18;101224.03;;;0.44;93.38
34931;BME280;21134;49.646;8.560;2023-03-04T07:24:45;101230.19;;;0.50;93.14
34931;BME280;21134;49.646;8.560;2023-03-04T07:27:11;101236.72;;;0.46;93.40
34931;BME280;21134;49.646;8.560;2023-03-04T07:29:38;101231.16;;;0.52;93.87
34931;BME280;21134;49.646;8.560;2023-03-04T07:32:06;101235.72;;;0.59;93.61
34931;BME280;21134;49.646;8.560;2023-03-04T07:34:33;101239.34;;;0.64;93.49
34931;BME280;21134;49.646;8.560;2023-03-04T07:37:01;101242.88;;;0.67;93.38
34931;BME280;21134;49.646;8.560;2023-03-04T07:39:27;101244.50;;;0.67;93.04
34931;BME280;21134;49.646;8.560;2023-03-04T07:41:53;101248.06;;;0.71;93.24
34931;BME280;21134;49.646;8.560;2023-03-04T07:44:21;101249.31;;;0.79;92.83
34931;BME280;21134;49.646;8.560;2023-03-04T07:46:47;101251.44;;;0.87;91.71
34931;BME280;21134;49.646;8.560;2023-03-04T07:49:14;101249.06;;;0.90;92.28
34931;BME280;21134;49.646;8.560;2023-03-04T07:51:41;101244.94;;;0.92;92.84
34931;BME280;21134;49.646;8.560;2023-03-04T07:54:09;101249.38;;;0.97;93.04
34931;BME280;21134;49.646;8.560;2023-03-04T07:56:36;101245.91;;;0.95;92.50
34931;BME280;21134;49.646;8.560;2023-03-04T07:59:02;101241.81;;;0.97;92.76
34931;BME280;21134;49.646;8.560;2023-03-04T08:01:31;101249.75;;;1.04;92.64
34931;BME280;21134;49.646;8.560;2023-03-04T08:03:58;101253.44;;;1.11;92.58
34931;BME280;21134;49.646;8.560;2023-03-04T08:06:25;101244.31;;;1.13;92.66
34931;BME280;21134;49.646;8.560;2023-03-04T08:08:55;101253.97;;;1.22;92.45
34931;BME280;21134;49.646;8.560;2023-03-04T08:11:23;101256.97;;;1.14;92.03
34931;BME280;21134;49.646;8.560;2023-03-04T08:13:50;101249.72;;;1.21;92.17
34931;BME280;21134;49.646;8.560;2023-03-04T08:16:19;101254.34;;;1.29;91.65
34931;BME280;21134;49.646;8.560;2023-03-04T08:18:48;101247.13;;;1.37;91.56
34931;BME280;21134;49.646;8.560;2023-03-04T08:21:16;101257.63;;;1.45;90.65
34931;BME280;21134;49.646;8.560;2023-03-04T08:23:44;101259.47;;;1.49;91.04
34931;BME280;21134;49.646;8.560;2023-03-04T08:26:13;101251.13;;;1.50;90.44
34931;BME280;21134;49.646;8.560;2023-03-04T08:28:41;101264.09;;;1.57;90.74
34931;BME280;21134;49.646;8.560;2023-03-04T08:31:10;101258.50;;;1.63;90.22
34931;BME280;21134;49.646;8.560;2023-03-04T08:33:37;101263.69;;;1.66;90.10
34931;BME280;21134;49.646;8.560;2023-03-04T08:36:04;101252.50;;;1.61;90.41
34931;BME280;21134;49.646;8.560;2023-03-04T08:38:31;101262.75;;;1.64;90.42
34931;BME280;21134;49.646;8.560;2023-03-04T08:40:57;101264.53;;;1.67;90.17
34931;BME280;21134;49.646;8.560;2023-03-04T08:43:25;101260.38;;;1.67;90.75
34931;BME280;21134;49.646;8.560;2023-03-04T08:45:53;101265.69;;;1.73;89.94
34931;BME280;21134;49.646;8.560;2023-03-04T08:48:20;101266.63;;;1.75;90.45
34931;BME280;21134;49.646;8.560;2023-03-04T08:50:48;101260.09;;;1.79;89.88
34931;BME280;21134;49.646;8.560;2023-03-04T08:53:16;101259.63;;;1.88;90.07
34931;BME280;21134;49.646;8.560;2023-03-04T08:55:43;101261.53;;;1.92;89.11
34931;BME280;21134;49.646;8.560;2023-03-04T08:58:09;101271.66;;;1.93;89.23
34931;BME280;21134;49.646;8.560;2023-03-04T09:00:39;101264.44;;;2.01;89.34
34931;BME280;21134;49.646;8.560;2023-03-04T09:03:09;101268.84;;;2.05;89.01
34931;BME280;21134;49.646;8.560;2023-03-04T09:05:36;101271.81;;;2.14;88.41
34931;BME280;21134;49.646;8.560;2023-03-04T09:08:03;101271.06;;;2.17;87.74
34931;BME280;21134;49.646;8.560;2023-03-04T09:10:29;101269.47;;;2.19;88.34
34931;BME280;21134;49.646;8.560;2023-03-04T09:12:57;101268.53;;;2.17;87.42
34931;BME280;21134;49.646;8.560;2023-03-04T09:15:23;101264.56;;;2.22;87.41
34931;BME280;21134;49.646;8.560;2023-03-04T09:17:50;101270.69;;;2.27;86.73
34931;BME280;21134;49.646;8.560;2023-03-04T09:20:17;101264.25;;;2.33;87.01
34931;BME280;21134;49.646;8.560;2023-03-04T09:22:45;101263.47;;;2.35;87.19
34931;BME280;21134;49.646;8.560;2023-03-04T09:25:13;101264.31;;;2.35;86.35
34931;BME280;21134;49.646;8.560;2023-03-04T09:27:40;101263.50;;;2.36;86.62
34931;BME280;21134;49.646;8.560;2023-03-04T09:30:08;101257.25;;;2.46;87.21
34931;BME280;21134;49.646;8.560;2023-03-04T09:32:35;101265.00;;;2.50;86.65
34931;BME280;21134;49.646;8.560;2023-03-04T09:35:02;101261.75;;;2.53;86.77
34931;BME280;21134;49.646;8.560;2023-03-04T09:37:30;101259.69;;;2.64;86.76
34931;BME280;21134;49.646;8.560;2023-03-04T09:39:56;101254.97;;;2.71;86.09
34931;BME280;21134;49.646;8.560;2023-03-04T09:42:24;101258.69;;;2.79;86.13
34931;BME280;21134;49.646;8.560;2023-03-04T09:44:53;101254.50;;;2.80;85.50
34931;BME280;21134;49.646;8.560;2023-03-04T09:47:22;101258.81;;;2.83;85.34
34931;BME280;21134;49.646;8.560;2023-03-04T09:49:53;101258.28;;;2.90;84.47
34931;BME280;21134;49.646;8.560;2023-03-04T09:52:31;101267.66;;;2.92;84.20
34931;BME280;21134;49.646;8.560;2023-03-04T09:55:09;101269.59;;;2.98;83.89
34931;BME280;21134;49.646;8.560;2023-03-04T09:57:45;101260.28;;;2.97;83.87
34931;BME280;21134;49.646;8.560;2023-03-04T10:00:14;101263.25;;;3.08;82.70
34931;BME280;21134;49.646;8.560;2023-03-04T10:02:52;101263.25;;;3.08;83.36
34931;BME280;21134;49.646;8.560;2023-03-04T10:05:27;101262.66;;;3.13;83.41
34931;BME280;21134;49.646;8.560;2023-03-04T10:07:59;101261.34;;;3.23;82.82
34931;BME280;21134;49.646;8.560;2023-03-04T10:10:29;101263.94;;;3.24;82.60
34931;BME280;21134;49.646;8.560;2023-03-04T10:13:00;101261.78;;;3.34;83.08
34931;BME280;21134;49.646;8.560;2023-03-04T10:15:33;101262.84;;;3.39;81.99
34931;BME280;21134;49.646;8.560;2023-03-04T10:18:06;101263.88;;;3.44;82.26
34931;BME280;21134;49.646;8.560;2023-03-04T10:20:45;101260.81;;;3.51;82.39
34931;BME280;21134;49.646;8.560;2023-03-04T10:23:18;101266.03;;;3.56;82.41
34931;BME280;21134;49.646;8.560;2023-03-04T10:25:46;101260.06;;;3.54;81.31
34931;BME280;21134;49.646;8.560;2023-03-04T10:28:20;101259.41;;;3.58;81.05
34931;BME280;21134;49.646;8.560;2023-03-04T10:30:51;101269.06;;;3.68;81.45
34931;BME280;21134;49.646;8.560;2023-03-04T10:33:22;101254.25;;;3.77;80.18
34931;BME280;21134;49.646;8.560;2023-03-04T10:35:52;101267.06;;;3.82;79.96
34931;BME280;21134;49.646;8.560;2023-03-04T10:38:22;101261.19;;;3.83;80.33
34931;BME280;21134;49.646;8.560;2023-03-04T10:40:49;101254.59;;;3.86;79.89
34931;BME280;21134;49.646;8.560;2023-03-04T10:43:17;101258.03;;;3.88;80.07
34931;BME280;21134;49.646;8.560;2023-03-04T10:45:44;101252.25;;;3.91;79.41
34931;BME280;21134;49.646;8.560;2023-03-04T10:48:19;101254.16;;;3.96;79.60
34931;BME280;21134;49.646;8.560;2023-03-04T10:50:46;101252.63;;;4.02;78.94
34931;BME280;21134;49.646;8.560;2023-03-04T10:53:36;101252.97;;;4.11;78.40
34931;BME280;21134;49.646;8.560;2023-03-04T10:56:32;101244.84;;;4.18;78.83
34931;BME280;21134;49.646;8.560;2023-03-04T10:59:31;101242.56;;;4.26;78.63
34931;BME280;21134;49.646;8.560;2023-03-04T11:01:58;101242.72;;;4.30;77.50
34931;BME280;21134;49.646;8.560;2023-03-04T11:04:26;101235.22;;;4.33;77.17
34931;BME280;21134;49.646;8.560;2023-03-04T11:06:53;101235.78;;;4.49;76.43
34931;BME280;21134;49.646;8.560;2023-03-04T11:09:22;101235.69;;;4.46;76.16
34931;BME280;21134;49.646;8.560;2023-03-04T11:11:51;101231.59;;;4.49;75.42
34931;BME280;21134;49.646;8.560;2023-03-04T11:14:22;101226.47;;;4.48;75.60
34931;BME280;21134;49.646;8.560;2023-03-04T11:16:54;101228.31;;;4.52;75.71
34931;BME280;21134;49.646;8.560;2023-03-04T11:19:23;101225.28;;;4.62;74.50
34931;BME280;21134;49.646;8.560;2023-03-04T11:21:51;101220.88;;;4.56;74.20
34931;BME280;21134;49.646;8.560;2023-03-04T11:24:22;101216.78;;;4.60;74.73
34931;BME280;21134;49.646;8.560;2023-03-04T11:26:54;101208.28;;;4.59;74.43
34931;BME280;21134;49.646;8.560;2023-03-04T11:29:23;101209.50;;;4.69;73.51
34931;BME280;21134;49.646;8.560;2023-03-04T11:31:52;101207.84;;;4.71;73.21
34931;BME280;21134;49.646;8.560;2023-03-04T11:34:31;101209.63;;;4.74;72.87
34931;BME280;21134;49.646;8.560;2023-03-04T11:37:05;101203.97;;;4.81;73.03
34931;BME280;21134;49.646;8.560;2023-03-04T11:39:36;101203.25;;;4.85;72.77
34931;BME280;21134;49.646;8.560;2023-03-04T11:42:16;101201.63;;;4.87;71.71
34931;BME280;21134;49.646;8.560;2023-03-04T11:44:45;101201.03;;;4.94;72.24
34931;BME280;21134;49.646;8.560;2023-03-04T11:47:35;101193.41;;;4.94;71.31
34931;BME280;21134;49.646;8.560;2023-03-04T11:50:31;101190.28;;;5.01;71.71
34931;BME280;21134;49.646;8.560;2023-03-04T11:56:15;101187.16;;;5.10;71.42
34931;BME280;21134;49.646;8.560;2023-03-04T11:59:09;101185.56;;;5.12;71.58
34931;BME280;21134;49.646;8.560;2023-03-04T12:01:48;101184.78;;;5.15;71.60
34931;BME280;21134;49.646;8.560;2023-03-04T12:04:31;101186.78;;;5.23;70.99
34931;BME280;21134;49.646;8.560;2023-03-04T12:07:10;101181.63;;;5.22;70.70
34931;BME280;21134;49.646;8.560;2023-03-04T12:09:47;101181.50;;;5.17;70.60
34931;BME280;21134;49.646;8.560;2023-03-04T12:12:28;101175.22;;;5.06;69.90
34931;BME280;21134;49.646;8.560;2023-03-04T12:15:07;101169.38;;;5.08;70.03
34931;BME280;21134;49.646;8.560;2023-03-04T12:17:45;101169.47;;;5.11;70.06
34931;BME280;21134;49.646;8.560;2023-03-04T12:23:31;101173.53;;;5.06;70.52
34931;BME280;21134;49.646;8.560;2023-03-04T12:26:06;101165.88;;;5.05;70.96
34931;BME280;21134;49.646;8.560;2023-03-04T12:28:56;101158.38;;;5.08;71.11
34931;BME280;21134;49.646;8.560;2023-03-04T12:31:37;101160.94;;;5.09;71.01
34931;BME280;21134;49.646;8.560;2023-03-04T12:34:29;101161.81;;;5.10;nan
34931;BME280;21134;49.646;8.560;2023-03-04T12:37:15;101152.50;;;5.10;71.61
34931;BME280;21134;49.646;8.560;2023-03-04T12:39:52;101149.81;;;5.04;71.17
34931;BME280;21134;49.646;8.560;2023-03-04T12:42:27;101149.41;;;4.92;70.36
34931;BME280;21134;49.646;8.560;2023-03-04T12:45:07;101152.63;;;4.88;70.99
34931;BME280;21134;49.646;8.560;2023-03-04T12:47:49;101150.16;;;4.89;70.99
34931;BME280;21134;49.646;8.560;2023-03-04T12:50:31;101146.13;;;4.95;71.36
34931;BME280;21134;49.646;8.560;2023-03-04T12:53:10;101137.53;;;4.91;72.36
34931;BME280;21134;49.646;8.560;2023-03-04T12:55:42;101146.13;;;4.95;72.05
34931;BME280;21134;49.646;8.560;2023-03-04T12:58:14;101138.53;;;4.96;71.14
34931;BME280;21134;49.646;8.560;2023-03-04T13:00:48;101136.94;;;4.98;71.44
34931;BME280;21134;49.646;8.560;2023-03-04T13:03:21;101133.59;;;5.01;71.27
34931;BME280;21134;49.646;8.560;2023-03-04T13:06:09;101131.03;;;4.99;71.35
34931;BME280;21134;49.646;8.560;2023-03-04T13:08:49;101129.16;;;4.94;71.62
34931;BME280;21134;49.646;8.560;2023-03-04T13:11:50;101127.53;;;4.96;71.92